Latest Weather Observations for Mount Buller

IDV60801

Issued at 7:35 pm EDT Friday 24 October 2014 (issued every 30 minutes, with the page automatically refreshed every 10 minutes)

About weather observations | Map of weather stations | Latest weather observations for VIC | Other Formats
Station Details ID: 083024 Name: MOUNT BULLER Lat: -37.15 Lon: 146.44 Height: 1707.0 m
Data from the previous 72 hours. | See also: Recent months at Mount Buller
Date/Time
EDT
Temp
°C
App
Temp
°C
Dew
Point
Rel
Hum
%
Delta-T
°C
Wind Press
QNH
hPa
Press
MSL
hPa
Rain
since 9 am
mm
Dir
 
Spd
km/h
Gust
km/h
Spd
kts
Gust
kts
24/07:30pm 13.0 9.8 7.0 67 3.2 WNW 13 22 7 12 - - 0.0
24/07:00pm 13.8 11.8 7.1 64 3.6 NW 7 17 4 9 - - 0.0
24/06:30pm 14.3 12.0 7.4 63 3.7 NNW 9 22 5 12 - - 0.0
24/06:00pm 14.7 11.7 7.7 63 3.8 NW 13 26 7 14 - - 0.0
24/05:30pm 15.5 11.4 8.0 61 4.1 N 19 32 10 17 - - 0.0
24/05:00pm 15.6 11.9 8.1 61 4.1 NW 17 33 9 18 - - 0.0
24/04:30pm 16.1 12.5 8.3 60 4.3 N 17 30 9 16 - - 0.0
24/04:00pm 14.6 10.8 7.6 63 3.8 N 17 33 9 18 - - 0.0
24/03:30pm 15.3 11.3 8.1 62 4.0 N 19 39 10 21 - - 0.0
24/03:00pm 15.4 11.7 7.9 61 4.1 NNW 17 32 9 17 - - 0.0
24/02:30pm 16.0 10.9 7.7 58 4.5 NNW 24 46 13 25 - - 0.0
24/02:03pm 15.1 8.8 7.2 59 4.3 NNW 30 48 16 26 - - 0.0
24/02:00pm 15.5 8.8 7.5 59 4.4 NNW 32 48 17 26 - - 0.0
24/01:30pm 15.0 7.9 8.0 63 3.8 NNW 35 59 19 32 - - 0.0
24/01:07pm 14.4 6.4 7.5 63 3.7 NNW 39 57 21 31 - - 0.0
24/01:00pm 14.6 5.7 6.9 60 4.1 NNW 43 57 23 31 - - 0.0
24/12:41pm 15.9 8.3 7.7 58 4.5 NNW 37 59 20 32 - - 0.0
24/12:30pm 16.5 9.7 7.7 56 4.8 NNW 33 48 18 26 - - 0.0
24/12:13pm 16.3 9.5 7.5 56 4.8 N 33 52 18 28 - - 0.0
24/12:00pm 16.1 10.5 8.8 62 4.1 N 28 37 15 20 - - 0.0
24/11:30am 15.5 9.5 8.7 64 3.8 N 30 39 16 21 - - 0.0
24/11:00am 14.2 6.6 7.7 65 3.5 N 37 46 20 25 - - 0.0
24/10:30am 13.8 6.7 8.2 69 3.1 N 35 48 19 26 - - 0.0
24/10:00am 13.0 5.5 7.9 71 2.8 N 37 46 20 25 - - 0.0
24/09:30am 12.5 4.1 7.2 70 2.8 N 41 52 22 28 - - 0.0
24/09:00am 12.3 3.4 7.0 70 2.8 N 43 57 23 31 - - 0.0
24/08:44am 11.8 3.6 6.7 71 2.7 N 39 57 21 31 - - 0.0
24/08:30am 11.8 3.7 6.9 72 2.6 N 39 52 21 28 - - 0.0
24/08:11am 11.4 3.6 6.5 72 2.6 N 37 57 20 31 - - 0.0
24/08:00am 11.2 3.7 6.5 73 2.4 N 35 48 19 26 - - 0.0
24/07:30am 11.2 4.1 6.5 73 2.4 N 33 44 18 24 - - 0.0
24/07:04am 10.7 3.6 6.5 75 2.2 N 33 52 18 28 - - 0.0
24/07:00am 10.7 3.2 6.5 75 2.2 N 35 52 19 28 - - 0.0
24/06:30am 10.9 4.8 6.5 74 2.3 N 28 52 15 28 - - 0.0
24/06:00am 11.1 5.0 6.5 73 2.4 NNW 28 46 15 25 - - 0.0
24/05:30am 11.3 5.2 6.4 72 2.5 NNW 28 50 15 27 - - 0.0
24/05:20am 11.5 4.6 6.4 71 2.7 N 32 50 17 27 - - 0.0
24/05:00am 11.6 5.9 6.5 71 2.7 NNW 26 41 14 22 - - 0.0
24/04:43am 11.8 5.7 6.7 71 2.7 N 28 56 15 30 - - 0.0
24/04:30am 11.8 6.1 6.7 71 2.7 N 26 41 14 22 - - 0.0
24/04:00am 11.8 6.1 6.7 71 2.7 N 26 37 14 20 - - 0.0
24/03:30am 12.3 7.0 6.8 69 2.9 N 24 43 13 23 - - 0.0
24/03:00am 12.4 7.8 6.7 68 3.0 N 20 39 11 21 - - 0.0
24/02:30am 12.9 9.0 6.9 67 3.2 NNW 17 28 9 15 - - 0.0
24/02:00am 13.4 8.6 7.2 66 3.3 N 22 41 12 22 - - 0.0
24/01:30am 13.9 8.3 7.2 64 3.6 N 26 37 14 20 - - 0.0
24/01:19am 14.0 8.0 7.1 63 3.7 N 28 52 15 28 - - 0.0
24/01:00am 14.4 7.9 6.7 60 4.1 N 30 43 16 23 - - 0.0
24/12:30am 14.5 10.2 6.8 60 4.1 N 19 33 10 18 - - 0.0
24/12:00am 15.1 9.8 6.7 57 4.5 N 24 37 13 20 - - 0.0
 
Date/Time
EDT
Temp
°C
App
Temp
°C
Dew
Point
Rel
Hum
%
Delta-T
°C
Wind Press
QNH
hPa
Press
MSL
hPa
Rain
since 9 am
mm
Dir
 
Spd
km/h
Gust
km/h
Spd
kts
Gust
kts
23/11:30pm 15.0 9.7 6.8 58 4.4 NNE 24 33 13 18 - - 0.0
23/11:00pm 14.9 10.4 7.0 59 4.2 N 20 30 11 16 - - 0.0
23/10:30pm 14.8 11.7 7.4 61 4.0 N 13 19 7 10 - - 0.0
23/10:00pm 14.8 11.4 7.6 62 3.9 NNE 15 19 8 10 - - 0.0
23/09:30pm 14.3 10.9 7.6 64 3.6 NNE 15 20 8 11 - - 0.0
23/09:00pm 14.1 10.8 8.1 67 3.3 NNE 15 19 8 10 - - 0.0
23/08:30pm 14.2 11.2 7.9 66 3.4 NNE 13 13 7 7 - - 0.0
23/08:00pm 14.5 11.5 7.5 63 3.8 NNE 13 15 7 8 - - 0.0
23/07:30pm 15.2 12.6 7.7 61 4.1 NNE 11 13 6 7 - - 0.0
23/07:00pm 15.8 13.8 7.3 57 4.6 N 7 9 4 5 - - 0.0
23/06:30pm 16.6 13.9 7.3 54 5.1 N 11 19 6 10 - - 0.0
23/06:00pm 17.2 13.3 7.0 51 5.6 N 17 22 9 12 - - 0.0
23/05:30pm 17.6 13.6 6.8 49 5.9 N 17 24 9 13 - - 0.0
23/05:00pm 17.9 13.7 7.6 51 5.7 N 19 26 10 14 - - 0.0
23/04:30pm 18.3 14.1 5.8 44 6.7 NE 17 22 9 12 - - 0.0
23/04:00pm 18.7 14.8 8.7 52 5.7 NNE 19 22 10 12 - - 0.0
23/03:30pm 18.6 15.2 7.7 49 6.1 N 15 22 8 12 - - 0.0
23/03:00pm 18.1 14.9 6.9 48 6.1 N 13 24 7 13 - - 0.0
23/02:30pm 18.4 14.8 6.9 47 6.3 NNE 15 24 8 13 - - 0.0
23/02:00pm 18.8 16.0 8.7 52 5.7 N 13 32 7 17 - - 0.0
23/01:30pm 17.1 13.8 6.3 49 5.8 N 13 20 7 11 - - 0.0
23/01:00pm 17.5 14.1 3.8 40 7.0 NW 11 22 6 12 - - 0.0
23/12:30pm 18.3 15.5 6.8 47 6.3 NW 11 22 6 12 - - 0.0
23/12:00pm 17.3 13.9 5.9 47 6.1 NW 13 22 7 12 - - 0.0
23/11:30am 17.5 14.3 8.4 55 5.1 NW 15 26 8 14 - - 0.0
23/11:00am 16.8 13.5 6.3 50 5.6 NNW 13 22 7 12 - - 0.0
23/10:30am 16.2 13.1 5.5 49 5.6 NNW 11 20 6 11 - - 0.0
23/10:00am 16.3 12.8 5.3 48 5.8 N 13 22 7 12 - - 0.0
23/09:30am 15.6 12.2 4.0 46 5.9 N 11 19 6 10 - - 0.0
23/09:00am 15.6 11.8 4.0 46 5.9 N 13 19 7 10 - - 0.0
23/08:30am 14.8 10.2 3.6 47 5.6 NNW 17 24 9 13 - - 0.0
23/08:00am 14.4 9.5 4.1 50 5.2 NNW 19 26 10 14 - - 0.0
23/07:30am 13.5 7.9 3.6 51 4.9 NNW 22 28 12 15 - - 0.0
23/07:00am 12.2 7.2 4.4 59 3.9 NNW 20 26 11 14 - - 0.0
23/06:30am 12.0 7.2 5.4 64 3.4 NNW 20 28 11 15 - - 0.0
23/06:00am 11.6 6.8 5.5 66 3.1 N 20 28 11 15 - - 0.0
23/05:30am 12.2 7.4 5.6 64 3.4 N 20 26 11 14 - - 0.0
23/05:00am 11.7 8.2 5.3 65 3.3 NNW 13 17 7 9 - - 0.0
23/04:30am 11.9 7.9 5.1 63 3.4 NNW 15 20 8 11 - - 0.0
23/04:00am 11.9 8.4 5.3 64 3.4 NNW 13 17 7 9 - - 0.0
23/03:30am 11.8 8.3 5.4 65 3.3 NNW 13 17 7 9 - - 0.0
23/03:00am 11.9 8.0 5.5 65 3.3 NNW 15 20 8 11 - - 0.0
23/02:30am 12.1 7.5 5.5 64 3.4 N 19 22 10 12 - - 0.0
23/02:00am 12.7 7.9 5.8 63 3.6 NNW 20 28 11 15 - - 0.0
23/01:30am 12.5 8.2 5.4 62 3.6 NW 17 24 9 13 - - 0.0
23/01:00am 12.9 8.1 4.8 58 4.1 WNW 19 26 10 14 - - 0.0
23/12:30am 12.5 8.3 5.7 63 3.5 NW 17 24 9 13 - - 0.0
23/12:00am 11.7 6.2 7.6 76 2.2 NW 26 33 14 18 - - 0.0
 
Date/Time
EDT
Temp
°C
App
Temp
°C
Dew
Point
Rel
Hum
%
Delta-T
°C
Wind Press
QNH
hPa
Press
MSL
hPa
Rain
since 9 am
mm
Dir
 
Spd
km/h
Gust
km/h
Spd
kts
Gust
kts
22/11:30pm 12.0 6.9 5.9 66 3.1 W 22 24 12 13 - - 0.0
22/11:00pm 13.9 11.1 -0.5 37 6.6 NNE 4 6 2 3 - - 0.0
22/10:30pm 14.9 11.7 -3.9 27 8.1 NE 4 6 2 3 - - 0.0
22/10:00pm 15.5 13.0 -4.4 25 8.5 CALM 0 2 0 1 - - 0.0
22/09:30pm 15.3 12.2 0.3 36 7.1 SSW 6 6 3 3 - - 0.0
22/09:00pm 14.8 11.8 2.0 42 6.2 S 7 7 4 4 - - 0.0
22/08:30pm 14.0 10.9 1.3 42 6.0 S 7 9 4 5 - - 0.0
22/08:00pm 13.9 11.0 1.5 43 5.9 S 6 7 3 4 - - 0.0
22/07:30pm 14.0 11.5 4.9 54 4.7 SW 7 13 4 7 - - 0.0
22/07:00pm 14.8 11.0 1.7 41 6.3 WSW 11 17 6 9 - - 0.0
22/06:30pm 15.9 13.6 5.5 50 5.5 WSW 7 9 4 5 - - 0.0
22/06:00pm 16.2 12.7 3.3 42 6.5 W 11 19 6 10 - - 0.0
22/05:30pm 16.7 14.1 4.1 43 6.5 WNW 7 17 4 9 - - 0.0
22/05:00pm 17.0 13.5 5.3 46 6.2 N 13 22 7 12 - - 0.0
22/04:30pm 17.4 14.1 4.7 43 6.6 NW 11 20 6 11 - - 0.0
22/04:00pm 17.5 12.8 3.0 38 7.3 WNW 17 24 9 13 - - 0.0
22/03:30pm 17.0 14.4 4.0 42 6.7 W 7 17 4 9 - - 0.0
22/03:00pm 16.9 12.4 4.3 43 6.5 NNW 17 32 9 17 - - 0.0
22/02:30pm 16.0 12.5 3.4 43 6.3 NNW 11 20 6 11 - - 0.0
22/02:00pm 16.3 13.4 4.7 46 6.0 NW 9 19 5 10 - - 0.0
22/01:30pm 15.7 12.2 5.3 50 5.4 NW 13 28 7 15 - - 0.0
22/01:00pm 16.1 12.8 6.3 52 5.2 NNW 13 24 7 13 - - 0.0
22/12:30pm 14.7 9.6 4.1 49 5.4 NW 20 30 11 16 - - 0.0
22/12:00pm 14.6 10.2 4.9 52 5.0 NNW 17 30 9 16 - - 0.0
22/11:30am 14.0 9.3 6.1 59 4.1 NW 20 28 11 15 - - 0.0
22/11:00am 14.2 10.2 8.4 68 3.2 NNW 19 30 10 16 - - 0.0
22/10:30am 13.4 8.5 7.0 65 3.4 NNW 22 32 12 17 - - 0.0
22/10:00am 13.0 8.4 6.4 64 3.5 NNW 20 28 11 15 - - 0.0
22/09:30am 12.3 7.8 7.0 70 2.8 NNW 20 30 11 16 - - 0.0
22/09:00am 11.7 7.0 6.0 68 2.9 NNW 20 28 11 15 - - 0.0
22/08:30am 11.2 7.2 6.7 74 2.3 NNW 17 20 9 11 - - 0.0
22/08:00am 10.6 5.6 6.4 75 2.2 NNW 22 28 12 15 - - 0.0
22/07:30am 8.9 3.8 6.2 83 1.4 NNW 22 32 12 17 - - 0.0
22/07:00am 8.9 4.1 5.5 79 1.7 NNW 20 30 11 16 - - 0.0
22/06:30am 9.0 3.8 5.6 79 1.7 NNW 22 28 12 15 - - 0.0
22/06:00am 9.4 3.8 5.2 75 2.1 NNW 24 32 13 17 - - 0.0
22/05:30am 9.8 3.3 4.8 71 2.5 NW 28 37 15 20 - - 0.0
22/05:00am 9.7 3.5 4.1 68 2.7 NW 26 33 14 18 - - 0.0
22/04:30am 9.9 3.6 3.9 66 2.9 NW 26 32 14 17 - - 0.0
22/04:00am 9.3 3.4 3.7 68 2.7 NW 24 30 13 16 - - 0.0
22/03:30am 9.4 4.2 3.6 67 2.8 NW 20 26 11 14 - - 0.0
22/03:00am 9.8 4.3 4.0 67 2.8 NW 22 28 12 15 - - 0.0
22/02:30am 9.6 4.1 4.0 68 2.7 NNW 22 26 12 14 - - 0.0
22/02:00am 9.3 4.1 3.5 67 2.8 NNW 20 26 11 14 - - 0.0
22/01:30am 8.9 4.4 4.3 73 2.2 NNW 17 20 9 11 - - 0.0
22/01:00am 9.2 4.4 4.4 72 2.4 NNW 19 22 10 12 - - 0.0
22/12:30am 9.3 3.3 3.3 66 2.9 NNW 24 28 13 15 - - 0.0
22/12:00am 9.0 3.6 2.3 63 3.1 NNW 20 24 11 13 - - 0.0
 
Date/Time
EDT
Temp
°C
App
Temp
°C
Dew
Point
Rel
Hum
%
Delta-T
°C
Wind Press
QNH
hPa
Press
MSL
hPa
Rain
since 9 am
mm
Dir
 
Spd
km/h
Gust
km/h
Spd
kts
Gust
kts
21/11:30pm 8.5 3.8 3.4 70 2.4 NNW 17 20 9 11 - - 0.0
21/11:00pm 8.4 4.6 5.9 84 1.3 NNW 15 19 8 10 - - 0.0
21/10:30pm 8.9 5.6 6.5 85 1.2 N 13 15 7 8 - - 0.0
21/10:00pm 8.8 6.3 6.6 86 1.1 N 9 13 5 7 - - 0.0
21/09:30pm 8.8 6.3 6.6 86 1.1 NNE 9 11 5 6 - - 0.0
21/09:00pm 9.4 7.0 7.0 85 1.2 N 9 11 5 6 - - 0.0
21/08:30pm 9.4 7.5 7.5 88 1.0 NNE 7 9 4 5 - - 0.0
21/08:00pm 9.5 7.6 7.6 88 1.0 NNE 7 9 4 5 - - 0.0

Other Formats:

Comma delimited format used in spreadsheet applications
http://www.bom.gov.au/fwo/IDV60801/IDV60801.94894.axf

JavaScript Object Notation format (JSON) in row-major order
http://www.bom.gov.au/fwo/IDV60801/IDV60801.94894.json